Wickett, Texas
Current Conditions -  °F | °C
As of 5:53 AM on Friday 31 Oct 2014 (Local Time) from KINK Reporting Station
Broken Clouds Broken Clouds  
Wind Chill: 55°   Ceiling: 6000
Heat Index: 55°   Visibility: 10mi
Dew Point: 38°   Wind: 6mph
Humidity: 53%   Direction: 20°NNE
Pressure: 30.3"   Gusts: NA
Location:  31.57°N, 103°W
Report Text: KINK 311053Z AUTO 02005KT 10SM SCT050 BKN060 13/03 A3030 RMK AO2 SLP225 T01280033
Loading
Personal Weather Stations






























Interactive Weather Map
Tropical Storm Tracking
New forecast layout! Learn more

10-Day Weather Forecast

Advertisements
Track Severe Weather on mobile